createdAt,value
2023-02-27T00:00:30.104Z,6.59
2023-02-27T00:01:30.110Z,6.59
2023-02-27T00:02:30.116Z,6.59
2023-02-27T00:03:30.147Z,6.59
2023-02-27T00:04:30.099Z,6.49
2023-02-27T00:05:30.106Z,6.49
2023-02-27T00:06:30.097Z,6.40
2023-02-27T00:07:30.110Z,6.40
2023-02-27T00:08:30.173Z,6.40
2023-02-27T00:09:30.118Z,6.59
2023-02-27T00:10:30.095Z,6.49
2023-02-27T00:11:30.398Z,6.40
2023-02-27T00:12:30.093Z,6.40
2023-02-27T00:13:30.099Z,6.79
2023-02-27T00:14:30.116Z,6.69
2023-02-27T00:15:30.096Z,6.79
2023-02-27T00:16:30.190Z,6.59
2023-02-27T00:17:30.098Z,6.59
2023-02-27T00:18:30.090Z,6.69
2023-02-27T00:19:30.092Z,6.59
2023-02-27T00:20:30.086Z,6.69
2023-02-27T00:21:30.094Z,6.69
2023-02-27T00:22:30.088Z,6.59
2023-02-27T00:23:30.102Z,6.79
2023-02-27T00:24:30.082Z,6.69
2023-02-27T00:25:30.107Z,6.98
2023-02-27T00:26:30.080Z,6.69
2023-02-27T00:27:30.088Z,6.69
2023-02-27T00:28:30.077Z,6.88
2023-02-27T00:29:30.087Z,6.88
2023-02-27T00:30:30.151Z,6.79
2023-02-27T00:31:30.529Z,6.79
2023-02-27T00:32:30.124Z,6.88
2023-02-27T00:33:30.081Z,6.98
2023-02-27T00:34:30.075Z,7.08
2023-02-27T00:35:30.081Z,6.98
2023-02-27T00:36:30.072Z,7.08
2023-02-27T00:37:30.087Z,6.98
2023-02-27T00:38:30.090Z,6.98
2023-02-27T00:39:30.077Z,7.08
2023-02-27T00:40:30.068Z,6.98
2023-02-27T00:41:30.081Z,6.98
2023-02-27T00:42:30.071Z,6.98
2023-02-27T00:43:30.073Z,6.88
2023-02-27T00:44:30.065Z,6.98
2023-02-27T00:45:30.071Z,7.08
2023-02-27T00:46:30.166Z,6.88
2023-02-27T00:47:30.075Z,6.98
2023-02-27T00:48:30.125Z,7.08
2023-02-27T00:49:30.060Z,7.17
2023-02-27T00:50:30.073Z,6.88
2023-02-27T00:51:30.057Z,7.17
2023-02-27T00:52:30.065Z,7.17
2023-02-27T00:53:30.056Z,7.08
2023-02-27T00:54:30.064Z,6.98
2023-02-27T00:55:30.072Z,6.98
2023-02-27T00:56:30.059Z,6.98
2023-02-27T00:57:30.094Z,7.08
2023-02-27T00:58:30.058Z,6.98
2023-02-27T00:59:30.051Z,7.08
2023-02-27T01:00:30.189Z,7.17
2023-02-27T01:01:30.049Z,6.98
2023-02-27T01:02:30.132Z,6.98
2023-02-27T01:03:30.062Z,7.17
2023-02-27T01:04:30.062Z,7.08
2023-02-27T01:05:30.049Z,7.08
2023-02-27T01:06:30.055Z,6.98
2023-02-27T01:07:30.049Z,7.08
2023-02-27T01:08:30.056Z,6.98
2023-02-27T01:09:30.049Z,7.08
2023-02-27T01:10:30.056Z,6.98
2023-02-27T01:11:30.051Z,7.17
2023-02-27T01:12:30.084Z,7.17
2023-02-27T01:13:30.046Z,6.98
2023-02-27T01:14:30.057Z,7.17
2023-02-27T01:15:30.057Z,6.98
2023-02-27T01:16:30.076Z,6.88
2023-02-27T01:17:30.046Z,6.98
2023-02-27T01:18:30.108Z,6.88
2023-02-27T01:19:30.056Z,7.08
2023-02-27T01:20:30.052Z,6.98
2023-02-27T01:21:30.041Z,7.08
2023-02-27T01:22:30.051Z,7.08
2023-02-27T01:23:30.043Z,7.08
2023-02-27T01:24:30.058Z,7.17
2023-02-27T01:25:30.040Z,7.08
2023-02-27T01:26:30.047Z,7.08
2023-02-27T01:27:30.037Z,7.08
2023-02-27T01:28:30.047Z,7.08
2023-02-27T01:29:30.037Z,7.17
2023-02-27T01:30:30.102Z,7.27
2023-02-27T01:31:30.225Z,7.27
2023-02-27T01:32:30.082Z,7.27
2023-02-27T01:33:30.037Z,7.17
2023-02-27T01:34:30.064Z,7.27
2023-02-27T01:35:30.034Z,7.17
2023-02-27T01:36:30.039Z,7.17
2023-02-27T01:37:30.033Z,7.08
2023-02-27T01:38:30.044Z,7.08
2023-02-27T01:39:30.028Z,7.27
2023-02-27T01:40:30.034Z,7.17
2023-02-27T01:41:30.033Z,7.17
2023-02-27T01:42:30.050Z,7.17
2023-02-27T01:43:30.025Z,7.08
2023-02-27T01:44:30.034Z,7.08
2023-02-27T01:45:30.103Z,6.98
2023-02-27T01:46:30.028Z,6.98
2023-02-27T01:47:30.026Z,7.08
2023-02-27T01:48:30.030Z,6.98
2023-02-27T01:49:30.021Z,7.17
2023-02-27T01:50:30.046Z,7.08
2023-02-27T01:51:30.020Z,6.98
2023-02-27T01:52:30.024Z,7.17
2023-02-27T01:53:30.016Z,7.17
2023-02-27T01:54:30.024Z,6.98
2023-02-27T01:55:30.014Z,6.98
2023-02-27T01:56:30.031Z,7.08
2023-02-27T01:57:30.026Z,6.98
2023-02-27T01:58:30.021Z,6.88
2023-02-27T01:59:30.013Z,6.88
2023-02-27T02:00:30.019Z,6.98
2023-02-27T02:01:30.205Z,6.98
2023-02-27T02:02:30.088Z,6.98
2023-02-27T02:03:30.009Z,6.98
2023-02-27T02:04:30.016Z,7.08
2023-02-27T02:05:30.010Z,6.98
2023-02-27T02:06:30.037Z,6.98
2023-02-27T02:07:30.011Z,6.88
2023-02-27T02:08:30.013Z,7.08
2023-02-27T02:09:30.010Z,6.98
2023-02-27T02:10:30.010Z,6.98
2023-02-27T02:11:30.004Z,7.08
2023-02-27T02:12:30.013Z,7.08
2023-02-27T02:13:30.000Z,6.98
2023-02-27T02:14:30.013Z,6.98
2023-02-27T02:15:29.998Z,6.98
2023-02-27T02:16:30.034Z,7.08
2023-02-27T02:17:30.006Z,6.98
2023-02-27T02:18:30.013Z,7.27
2023-02-27T02:19:29.995Z,7.27
2023-02-27T02:20:30.005Z,6.98
2023-02-27T02:21:29.996Z,7.27
2023-02-27T02:22:30.024Z,7.27
2023-02-27T02:23:29.993Z,7.27
2023-02-27T02:24:30.001Z,7.27
2023-02-27T02:25:29.990Z,7.37
2023-02-27T02:26:33.163Z,7.27
2023-02-27T02:27:29.992Z,7.17
2023-02-27T02:28:29.997Z,7.27
2023-02-27T02:29:30.002Z,7.27
2023-02-27T02:30:30.061Z,7.27
2023-02-27T02:31:30.540Z,7.27
2023-02-27T02:32:30.074Z,7.27
2023-02-27T02:33:29.988Z,7.37
2023-02-27T02:34:29.994Z,7.37
2023-02-27T02:35:29.992Z,7.46
2023-02-27T02:36:29.991Z,7.27
2023-02-27T02:37:29.981Z,7.27
2023-02-27T02:38:30.018Z,7.37
2023-02-27T02:39:29.982Z,7.46
2023-02-27T02:40:29.989Z,7.37
2023-02-27T02:41:29.980Z,7.37
2023-02-27T02:42:29.990Z,7.46
2023-02-27T02:43:29.981Z,7.37
2023-02-27T02:44:29.985Z,7.46
2023-02-27T02:45:29.978Z,7.46
2023-02-27T02:46:29.983Z,7.37
2023-02-27T02:47:29.982Z,7.46
2023-02-27T02:48:30.003Z,7.37
2023-02-27T02:49:29.976Z,7.46
2023-02-27T02:50:29.980Z,7.46
2023-02-27T02:51:29.972Z,7.17
2023-02-27T02:52:29.979Z,7.37
2023-02-27T02:53:36.636Z,7.27
2023-02-27T02:54:29.998Z,7.17
2023-02-27T02:55:29.970Z,7.46
2023-02-27T02:56:29.985Z,7.37
2023-02-27T02:57:29.972Z,7.27
2023-02-27T02:58:29.973Z,7.46
2023-02-27T02:59:29.967Z,7.46
2023-02-27T03:00:29.973Z,7.56
2023-02-27T03:01:30.290Z,7.27
2023-02-27T03:02:29.971Z,7.46
2023-02-27T03:03:29.965Z,7.17
2023-02-27T03:04:29.997Z,7.37
2023-02-27T03:05:29.964Z,7.37
2023-02-27T03:06:29.968Z,7.37
2023-02-27T03:07:30.026Z,7.37
2023-02-27T03:08:29.967Z,7.27
2023-02-27T03:09:29.958Z,7.37
2023-02-27T03:10:29.989Z,7.46
2023-02-27T03:11:29.955Z,7.56
2023-02-27T03:12:29.966Z,7.37
2023-02-27T03:13:29.957Z,7.27
2023-02-27T03:14:29.962Z,7.27
2023-02-27T03:15:29.985Z,7.37
2023-02-27T03:16:29.961Z,7.37
2023-02-27T03:17:29.952Z,7.27
2023-02-27T03:18:29.957Z,7.37
2023-02-27T03:19:29.951Z,7.27
2023-02-27T03:20:29.959Z,7.37
2023-02-27T03:21:29.949Z,7.37
2023-02-27T03:22:29.976Z,7.46
2023-02-27T03:23:29.944Z,7.37
2023-02-27T03:24:29.955Z,7.37
2023-02-27T03:25:29.942Z,7.37
2023-02-27T03:26:30.024Z,7.27
2023-02-27T03:27:29.940Z,7.27
2023-02-27T03:28:29.950Z,7.37
2023-02-27T03:29:29.961Z,7.27
2023-02-27T03:30:30.014Z,7.27
2023-02-27T03:31:30.427Z,7.27
2023-02-27T03:32:30.010Z,7.27
2023-02-27T03:33:29.937Z,7.27
2023-02-27T03:34:29.941Z,7.27
2023-02-27T03:35:29.935Z,7.27
2023-02-27T03:36:29.947Z,7.27
2023-02-27T03:37:29.941Z,7.37
2023-02-27T03:38:29.938Z,7.27
2023-02-27T03:39:29.930Z,7.27
2023-02-27T03:40:29.938Z,7.37
2023-02-27T03:41:29.930Z,7.17
2023-02-27T03:42:29.959Z,7.17
2023-02-27T03:43:29.928Z,7.17
2023-02-27T03:44:29.934Z,7.17
2023-02-27T03:45:29.925Z,7.08
2023-02-27T03:46:29.975Z,7.37
2023-02-27T03:47:29.924Z,7.46
2023-02-27T03:48:30.030Z,7.46
2023-02-27T03:49:29.934Z,7.27
2023-02-27T03:50:29.928Z,7.46
2023-02-27T03:51:30.053Z,7.17
2023-02-27T03:52:29.952Z,7.37
2023-02-27T03:53:29.924Z,7.37
2023-02-27T03:54:29.942Z,7.17
2023-02-27T03:55:29.917Z,7.17
2023-02-27T03:56:29.928Z,7.17
2023-02-27T03:57:29.916Z,7.08
2023-02-27T03:58:29.946Z,7.27
2023-02-27T03:59:29.914Z,7.17
2023-02-27T04:00:29.920Z,7.27
2023-02-27T04:01:30.142Z,7.17
2023-02-27T04:02:29.966Z,7.17
2023-02-27T04:03:29.914Z,7.17
2023-02-27T04:04:29.918Z,7.37
2023-02-27T04:05:29.914Z,7.46
2023-02-27T04:06:29.915Z,7.27
2023-02-27T04:07:29.909Z,7.56
2023-02-27T04:08:29.918Z,7.56
2023-02-27T04:09:29.909Z,7.66
2023-02-27T04:10:29.913Z,7.56
2023-02-27T04:11:29.983Z,7.56
2023-02-27T04:12:29.912Z,7.66
2023-02-27T04:13:29.909Z,7.56
2023-02-27T04:14:29.934Z,7.56
2023-02-27T04:15:29.911Z,7.66
2023-02-27T04:16:29.909Z,7.56
2023-02-27T04:17:29.900Z,7.66
2023-02-27T04:18:29.906Z,7.56
2023-02-27T04:19:29.901Z,7.56
2023-02-27T04:20:29.906Z,7.56
2023-02-27T04:21:29.895Z,7.56
2023-02-27T04:22:29.904Z,7.56
2023-02-27T04:23:29.895Z,7.56
2023-02-27T04:24:29.903Z,7.56
2023-02-27T04:25:29.896Z,7.66
2023-02-27T04:26:29.900Z,7.56
2023-02-27T04:27:29.897Z,7.66
2023-02-27T04:28:29.900Z,7.66
2023-02-27T04:29:29.894Z,7.66
2023-02-27T04:30:29.924Z,7.56
2023-02-27T04:31:30.270Z,7.37
2023-02-27T04:32:30.085Z,7.56
2023-02-27T04:33:29.895Z,7.46
2023-02-27T04:34:29.898Z,7.46
2023-02-27T04:35:29.891Z,7.86
2023-02-27T04:36:29.899Z,7.46
2023-02-27T04:37:29.889Z,7.56
2023-02-27T04:38:29.903Z,7.37
2023-02-27T04:39:29.888Z,7.46
2023-02-27T04:40:29.896Z,7.46
2023-02-27T04:41:29.943Z,7.37
2023-02-27T04:42:29.895Z,7.46
2023-02-27T04:43:29.889Z,7.46
2023-02-27T04:44:29.898Z,7.46
2023-02-27T04:45:29.921Z,7.37
2023-02-27T04:46:29.922Z,7.46
2023-02-27T04:47:29.901Z,7.37
2023-02-27T04:48:29.892Z,7.46
2023-02-27T04:49:29.887Z,7.46
2023-02-27T04:50:29.892Z,7.46
2023-02-27T04:51:29.883Z,7.76
2023-02-27T04:52:29.889Z,7.37
2023-02-27T04:53:29.887Z,7.56
2023-02-27T04:54:29.886Z,7.46
2023-02-27T04:55:29.881Z,7.37
2023-02-27T04:56:29.890Z,7.37
2023-02-27T04:57:29.879Z,7.46
2023-02-27T04:58:29.884Z,7.86
2023-02-27T04:59:29.877Z,7.66
2023-02-27T05:00:29.884Z,7.76
2023-02-27T05:01:30.320Z,7.86
2023-02-27T05:02:30.075Z,7.66
2023-02-27T05:03:29.873Z,7.56
2023-02-27T05:04:29.889Z,7.56
2023-02-27T05:05:29.881Z,7.56
2023-02-27T05:06:29.874Z,7.66
2023-02-27T05:07:29.879Z,7.56
2023-02-27T05:08:29.870Z,7.56
2023-02-27T05:09:29.875Z,7.66
2023-02-27T05:10:29.865Z,7.86
2023-02-27T05:11:29.996Z,7.66
2023-02-27T05:12:29.865Z,7.66
2023-02-27T05:13:29.873Z,7.56
2023-02-27T05:14:29.862Z,7.37
2023-02-27T05:15:29.914Z,7.27
2023-02-27T05:16:29.938Z,7.27
2023-02-27T05:17:29.869Z,7.37
2023-02-27T05:18:29.920Z,7.37
2023-02-27T05:19:29.868Z,7.46
2023-02-27T05:20:29.951Z,7.37
2023-02-27T05:21:30.071Z,7.37
2023-02-27T05:22:29.857Z,7.27
2023-02-27T05:23:29.870Z,7.08
2023-02-27T05:24:29.855Z,6.98
2023-02-27T05:25:29.862Z,7.08
2023-02-27T05:26:29.859Z,7.17
2023-02-27T05:27:29.860Z,7.08
2023-02-27T05:28:29.866Z,7.17
2023-02-27T05:29:29.859Z,6.98
2023-02-27T05:30:29.849Z,6.88
2023-02-27T05:31:30.161Z,6.98
2023-02-27T05:32:29.967Z,6.98
2023-02-27T05:33:29.854Z,7.08
2023-02-27T05:34:29.871Z,6.88
2023-02-27T05:35:29.986Z,6.79
2023-02-27T05:36:29.845Z,6.98
2023-02-27T05:37:29.851Z,6.40
2023-02-27T05:38:29.887Z,6.59
2023-02-27T05:39:29.848Z,6.49
2023-02-27T05:40:29.841Z,6.59
2023-02-27T05:41:29.866Z,6.49
2023-02-27T05:42:29.841Z,6.59
2023-02-27T05:43:29.840Z,6.49
2023-02-27T05:44:29.834Z,6.59
2023-02-27T05:45:29.843Z,6.59
2023-02-27T05:46:29.831Z,6.40
2023-02-27T05:47:29.844Z,6.59
2023-02-27T05:48:29.983Z,6.30
2023-02-27T05:49:29.837Z,6.21
2023-02-27T05:50:29.855Z,6.21
2023-02-27T05:51:29.935Z,6.11
2023-02-27T05:52:29.828Z,6.21
2023-02-27T05:53:29.833Z,6.59
2023-02-27T05:54:29.828Z,6.59
2023-02-27T05:55:29.836Z,6.40
2023-02-27T05:56:30.091Z,6.21
2023-02-27T05:57:29.835Z,6.21
2023-02-27T05:58:29.833Z,5.91
2023-02-27T05:59:29.831Z,5.62
2023-02-27T06:00:29.824Z,5.72
2023-02-27T06:01:29.832Z,5.52
2023-02-27T06:02:29.861Z,5.33
2023-02-27T06:03:29.879Z,5.33
2023-02-27T06:04:29.821Z,5.43
2023-02-27T06:05:29.828Z,5.04
2023-02-27T06:06:29.942Z,5.14
2023-02-27T06:07:29.828Z,5.33
2023-02-27T06:08:29.819Z,5.14
2023-02-27T06:09:29.825Z,5.24
2023-02-27T06:10:29.817Z,5.43
2023-02-27T06:11:29.823Z,5.43
2023-02-27T06:12:29.817Z,6.40
2023-02-27T06:13:29.826Z,10.38
2023-02-27T06:14:29.814Z,9.31
2023-02-27T06:15:29.826Z,6.98
2023-02-27T06:16:30.197Z,6.11
2023-02-27T06:17:29.821Z,5.72
2023-02-27T06:18:29.814Z,5.62
2023-02-27T06:19:29.831Z,6.11
2023-02-27T06:20:29.811Z,5.72
2023-02-27T06:21:29.819Z,6.01
2023-02-27T06:22:29.835Z,6.11
2023-02-27T06:23:29.816Z,6.21
2023-02-27T06:24:29.808Z,6.30
2023-02-27T06:25:29.821Z,6.01
2023-02-27T06:26:30.028Z,6.69
2023-02-27T06:27:29.817Z,6.11
2023-02-27T06:28:29.809Z,6.40
2023-02-27T06:29:29.811Z,6.40
2023-02-27T06:30:29.861Z,6.69
2023-02-27T06:31:29.821Z,6.21
2023-02-27T06:32:29.798Z,6.01
2023-02-27T06:33:29.806Z,5.82
2023-02-27T06:34:29.797Z,5.73
2023-02-27T06:35:29.806Z,5.91
2023-02-27T06:36:30.210Z,5.91
2023-02-27T06:37:29.800Z,5.91
2023-02-27T06:38:29.816Z,5.91
2023-02-27T06:39:29.804Z,5.82
2023-02-27T06:40:29.795Z,5.82
2023-02-27T06:41:29.800Z,5.82
2023-02-27T06:42:29.788Z,6.01
2023-02-27T06:43:29.795Z,6.01
2023-02-27T06:44:29.806Z,5.91
2023-02-27T06:45:29.795Z,5.91
2023-02-27T06:46:30.016Z,5.91
2023-02-27T06:47:29.794Z,5.91
2023-02-27T06:48:29.798Z,5.82
2023-02-27T06:49:29.793Z,5.82
2023-02-27T06:50:29.788Z,6.21
2023-02-27T06:51:29.816Z,6.11
2023-02-27T06:52:29.783Z,5.82
2023-02-27T06:53:29.790Z,5.82
2023-02-27T06:54:29.807Z,5.73
2023-02-27T06:55:29.787Z,5.73
2023-02-27T06:56:29.857Z,5.82
2023-02-27T06:57:29.793Z,5.82
2023-02-27T06:58:29.777Z,5.82
2023-02-27T06:59:29.784Z,5.82
2023-02-27T07:00:29.815Z,5.82
2023-02-27T07:01:29.893Z,5.82
2023-02-27T07:02:29.773Z,5.73
2023-02-27T07:03:29.783Z,5.91
2023-02-27T07:04:29.821Z,5.82
2023-02-27T07:05:29.781Z,5.91
2023-02-27T07:07:34.017Z,5.91
2023-02-27T07:07:34.674Z,5.91
2023-02-27T07:08:29.774Z,5.73
2023-02-27T07:09:29.788Z,5.92
2023-02-27T07:10:29.862Z,5.63
2023-02-27T07:11:29.780Z,5.82
2023-02-27T07:12:29.777Z,5.73
2023-02-27T07:13:29.782Z,5.82
2023-02-27T07:14:29.771Z,5.73
2023-02-27T07:15:29.802Z,5.92
2023-02-27T07:16:29.941Z,5.82
2023-02-27T07:17:29.778Z,5.92
2023-02-27T07:18:29.770Z,5.63
2023-02-27T07:19:29.777Z,5.82
2023-02-27T07:20:29.771Z,5.82
2023-02-27T07:21:29.777Z,6.30
2023-02-27T07:22:29.783Z,5.82
2023-02-27T07:23:29.777Z,5.63
2023-02-27T07:24:29.784Z,5.63
2023-02-27T07:25:29.771Z,5.33
2023-02-27T07:26:30.036Z,5.33
2023-02-27T07:27:29.776Z,5.63
2023-02-27T07:28:29.862Z,5.43
2023-02-27T07:29:29.771Z,5.24
2023-02-27T07:30:29.764Z,5.15
2023-02-27T07:31:29.847Z,5.43
2023-02-27T07:32:29.768Z,5.53
2023-02-27T07:33:29.785Z,5.33
2023-02-27T07:34:29.769Z,5.15
2023-02-27T07:35:29.820Z,5.15
2023-02-27T07:36:29.781Z,5.33
2023-02-27T07:37:29.774Z,5.53
2023-02-27T07:38:29.766Z,5.24
2023-02-27T07:39:29.771Z,5.33
2023-02-27T07:40:29.772Z,5.05
2023-02-27T07:41:31.152Z,5.33
2023-02-27T07:42:29.785Z,5.15
2023-02-27T07:43:29.771Z,4.85
2023-02-27T07:44:29.765Z,4.75
2023-02-27T07:45:29.772Z,5.05
2023-02-27T07:46:30.190Z,4.85
2023-02-27T07:47:29.769Z,4.85
2023-02-27T07:48:29.766Z,4.85
2023-02-27T07:49:29.771Z,4.85
2023-02-27T07:50:29.763Z,5.05
2023-02-27T07:51:29.779Z,5.05
2023-02-27T07:53:29.770Z,5.05
2023-02-27T07:54:29.807Z,4.85
2023-02-27T07:55:29.769Z,5.24
2023-02-27T07:56:30.026Z,7.09
2023-02-27T07:57:29.775Z,5.43
2023-02-27T07:58:29.799Z,5.24
2023-02-27T07:59:29.776Z,4.85
2023-02-27T08:00:29.763Z,4.85
2023-02-27T08:01:29.769Z,4.75
2023-02-27T08:02:29.808Z,5.05
2023-02-27T08:03:29.767Z,4.95
2023-02-27T08:04:29.799Z,4.56
2023-02-27T08:05:29.772Z,4.46
2023-02-27T08:06:30.236Z,4.56
2023-02-27T08:07:29.766Z,4.47
2023-02-27T08:08:29.867Z,4.75
2023-02-27T08:09:29.765Z,4.66
2023-02-27T08:10:29.768Z,4.66
2023-02-27T08:11:30.043Z,4.66
2023-02-27T08:12:29.770Z,4.85
2023-02-27T08:13:58.983Z,4.75
2023-02-27T08:14:29.779Z,4.56
2023-02-27T08:15:29.769Z,4.85
2023-02-27T08:16:30.156Z,4.66
2023-02-27T08:17:29.767Z,4.66
2023-02-27T08:18:29.758Z,4.66
2023-02-27T08:19:29.768Z,4.56
2023-02-27T08:20:29.772Z,4.37
2023-02-27T08:21:30.188Z,4.56
2023-02-27T08:22:29.762Z,4.37
2023-02-27T08:23:29.765Z,4.66
2023-02-27T08:24:29.780Z,4.56
2023-02-27T08:25:29.765Z,4.47
2023-02-27T08:26:30.244Z,5.82
2023-02-27T08:27:29.764Z,5.15
2023-02-27T08:28:29.758Z,4.75
2023-02-27T08:29:29.767Z,5.05
2023-02-27T08:30:29.775Z,4.95
2023-02-27T08:31:29.803Z,4.56
2023-02-27T08:32:29.792Z,4.56
2023-02-27T08:33:29.760Z,4.85
2023-02-27T08:34:29.757Z,4.85
2023-02-27T08:35:29.758Z,4.37
2023-02-27T08:36:29.939Z,4.56
2023-02-27T08:37:29.758Z,4.56
2023-02-27T08:38:29.853Z,4.56
2023-02-27T08:39:29.761Z,4.56
2023-02-27T08:40:29.753Z,4.17
2023-02-27T08:41:29.775Z,4.17
2023-02-27T08:42:29.749Z,4.27
2023-02-27T08:43:29.756Z,4.37
2023-02-27T08:44:29.747Z,4.37
2023-02-27T08:45:29.800Z,4.47
2023-02-27T08:46:30.146Z,4.17
2023-02-27T08:47:29.753Z,4.56
2023-02-27T08:48:29.748Z,4.27
2023-02-27T08:49:29.758Z,4.27
2023-02-27T08:50:29.746Z,4.36
2023-02-27T08:51:30.086Z,4.27
2023-02-27T08:52:29.746Z,4.27
2023-02-27T08:53:29.753Z,4.47
2023-02-27T08:54:29.750Z,4.27
2023-02-27T08:55:29.751Z,4.36
2023-02-27T08:56:29.947Z,4.56
2023-02-27T08:57:29.753Z,4.36
2023-02-27T08:58:29.742Z,4.36
2023-02-27T08:59:29.748Z,4.17
2023-02-27T09:00:29.756Z,4.27
2023-02-27T09:01:30.281Z,4.17
2023-02-27T09:02:29.799Z,4.27
2023-02-27T09:03:29.753Z,4.08
2023-02-27T09:04:29.752Z,4.27
2023-02-27T09:05:29.750Z,4.27
2023-02-27T09:06:30.163Z,4.66
2023-02-27T09:07:29.749Z,4.27
2023-02-27T09:08:29.986Z,4.56
2023-02-27T09:09:29.750Z,4.56
2023-02-27T09:10:29.742Z,4.27
2023-02-27T09:11:30.334Z,4.66
2023-02-27T09:12:29.742Z,4.56
2023-02-27T09:13:29.751Z,4.66
2023-02-27T09:14:29.740Z,4.56
2023-02-27T09:15:29.746Z,4.56
2023-02-27T09:16:30.236Z,4.66
2023-02-27T09:17:29.746Z,4.46
2023-02-27T09:18:29.763Z,4.66
2023-02-27T09:19:29.813Z,4.46
2023-02-27T09:20:29.747Z,4.56
2023-02-27T09:21:29.747Z,4.66
2023-02-27T09:22:29.746Z,4.56
2023-02-27T09:23:29.735Z,4.56
2023-02-27T09:24:29.744Z,4.46
2023-02-27T09:25:29.738Z,4.66
2023-02-27T09:26:43.427Z,4.66
2023-02-27T09:27:29.733Z,4.46
2023-02-27T09:28:29.740Z,4.36
2023-02-27T09:29:29.745Z,4.36
2023-02-27T09:30:29.740Z,4.46
2023-02-27T09:31:32.805Z,4.56
2023-02-27T09:32:29.883Z,4.36
2023-02-27T09:33:29.735Z,4.46
2023-02-27T09:34:29.784Z,4.46
2023-02-27T09:35:29.823Z,4.66
2023-02-27T09:36:30.059Z,4.66
2023-02-27T09:37:29.731Z,4.56
2023-02-27T09:38:29.741Z,4.66
2023-02-27T09:39:29.728Z,4.95
2023-02-27T09:40:29.737Z,4.85
2023-02-27T09:41:29.729Z,5.24
2023-02-27T09:42:29.734Z,4.95
2023-02-27T09:43:29.728Z,5.05
2023-02-27T09:44:44.906Z,4.85
2023-02-27T09:45:29.729Z,4.66
2023-02-27T09:46:29.963Z,4.75
2023-02-27T09:47:29.724Z,4.95
2023-02-27T09:48:29.735Z,4.95
2023-02-27T09:49:29.726Z,4.94
2023-02-27T09:50:29.758Z,5.24
2023-02-27T09:51:30.016Z,5.04
2023-02-27T09:52:29.736Z,5.14
2023-02-27T09:53:29.728Z,5.33
2023-02-27T09:54:29.729Z,5.43
2023-02-27T09:55:29.723Z,5.24
2023-02-27T09:56:29.990Z,5.14
2023-02-27T09:57:29.723Z,5.24
2023-02-27T09:58:29.727Z,5.24
2023-02-27T09:59:29.719Z,5.14
2023-02-27T10:00:29.737Z,5.43
2023-02-27T10:01:30.048Z,5.43
2023-02-27T10:02:29.787Z,5.43
2023-02-27T10:03:29.801Z,5.43
2023-02-27T10:04:29.729Z,5.53
2023-02-27T10:05:29.788Z,5.53
2023-02-27T10:06:30.213Z,5.63
2023-02-27T10:07:29.740Z,5.73
2023-02-27T10:08:29.719Z,5.63
2023-02-27T10:09:29.720Z,5.63
2023-02-27T10:10:29.763Z,5.53
2023-02-27T10:11:29.765Z,5.63
2023-02-27T10:12:29.759Z,5.63
2023-02-27T10:13:29.753Z,5.73
2023-02-27T10:14:29.798Z,5.43
2023-02-27T10:15:29.722Z,5.73
2023-02-27T10:16:30.119Z,5.63
2023-02-27T10:17:29.719Z,5.63
2023-02-27T10:18:30.918Z,5.53
2023-02-27T10:19:29.713Z,5.63
2023-02-27T10:20:29.717Z,5.63
2023-02-27T10:21:31.149Z,5.73
2023-02-27T10:22:29.739Z,5.73
2023-02-27T10:23:29.753Z,5.53
2023-02-27T10:24:29.788Z,5.43
2023-02-27T10:25:32.067Z,5.53
2023-02-27T10:26:29.717Z,5.53
2023-02-27T10:27:29.711Z,5.53
2023-02-27T10:28:29.719Z,5.82
2023-02-27T10:29:29.709Z,5.73
2023-02-27T10:30:32.856Z,5.73
2023-02-27T10:31:30.144Z,5.73
2023-02-27T10:32:29.715Z,5.91
2023-02-27T10:33:29.733Z,5.91
2023-02-27T10:34:29.756Z,5.82
2023-02-27T10:35:29.758Z,6.11
2023-02-27T10:36:33.924Z,6.01
2023-02-27T10:37:29.731Z,5.91
2023-02-27T10:38:29.750Z,5.91
2023-02-27T10:39:29.739Z,5.91
2023-02-27T10:40:29.732Z,5.91
2023-02-27T10:41:30.182Z,5.91
2023-02-27T10:42:29.739Z,5.91
2023-02-27T10:43:29.736Z,5.82
2023-02-27T10:44:29.705Z,5.82
2023-02-27T10:45:29.699Z,5.63
2023-02-27T10:46:30.278Z,5.82
2023-02-27T10:47:29.717Z,5.73
2023-02-27T10:48:29.700Z,5.73
2023-02-27T10:49:29.696Z,5.82
2023-02-27T10:50:29.697Z,5.82
2023-02-27T10:51:29.945Z,5.82
2023-02-27T10:52:29.736Z,5.82
2023-02-27T10:53:29.692Z,5.91
2023-02-27T10:54:29.730Z,5.73
2023-02-27T10:55:29.688Z,5.82
2023-02-27T10:56:30.011Z,6.11
2023-02-27T10:57:29.688Z,6.01
2023-02-27T10:58:29.700Z,6.11
2023-02-27T10:59:29.685Z,6.01
2023-02-27T11:00:29.705Z,6.11
2023-02-27T11:01:29.996Z,5.91
2023-02-27T11:02:29.691Z,5.73
2023-02-27T11:03:29.686Z,6.11
2023-02-27T11:04:29.767Z,5.73
2023-02-27T11:05:29.682Z,6.11
2023-02-27T11:06:29.693Z,6.11
2023-02-27T11:07:29.694Z,5.63
2023-02-27T11:08:29.683Z,5.73
2023-02-27T11:09:29.713Z,5.63
2023-02-27T11:10:29.706Z,5.73
2023-02-27T11:11:29.838Z,5.73
2023-02-27T11:12:29.688Z,5.82
2023-02-27T11:13:29.676Z,5.73
2023-02-27T11:14:29.684Z,5.82
2023-02-27T11:15:29.738Z,5.82
2023-02-27T11:16:29.700Z,5.82
2023-02-27T11:17:29.681Z,5.82
2023-02-27T11:18:29.678Z,5.73
2023-02-27T11:19:29.696Z,5.82
2023-02-27T11:20:29.691Z,5.73
2023-02-27T11:21:30.108Z,5.73
2023-02-27T11:22:29.684Z,5.82
2023-02-27T11:23:29.674Z,5.82
2023-02-27T11:24:29.682Z,5.63
2023-02-27T11:25:29.681Z,6.30
2023-02-27T11:26:29.702Z,6.40
2023-02-27T11:27:29.680Z,6.21
2023-02-27T11:28:29.719Z,5.53
2023-02-27T11:29:29.673Z,5.63
2023-02-27T11:30:29.681Z,6.50
2023-02-27T11:31:30.126Z,6.21
2023-02-27T11:32:29.677Z,6.50
2023-02-27T11:33:29.674Z,6.30
2023-02-27T11:34:29.675Z,6.11
2023-02-27T11:35:29.821Z,6.11
2023-02-27T11:36:29.675Z,6.01
2023-02-27T11:37:29.670Z,6.11
2023-02-27T11:38:29.688Z,6.11
2023-02-27T11:39:29.666Z,6.11
2023-02-27T11:40:29.672Z,6.11
2023-02-27T11:41:29.959Z,6.12
2023-02-27T11:42:29.693Z,6.11
2023-02-27T11:43:29.663Z,6.11
2023-02-27T11:44:38.623Z,6.01
2023-02-27T11:46:12.746Z,6.12
2023-02-27T11:46:48.187Z,6.11
2023-02-27T11:47:29.707Z,6.21
2023-02-27T11:48:29.670Z,6.11
2023-02-27T11:49:29.662Z,6.11
2023-02-27T11:50:29.664Z,6.01
2023-02-27T11:51:29.858Z,5.73
2023-02-27T11:52:29.664Z,5.63
2023-02-27T11:53:29.662Z,6.11
2023-02-27T11:54:29.663Z,5.63
2023-02-27T11:55:29.654Z,5.53
2023-02-27T11:56:29.662Z,5.82
2023-02-27T11:57:29.658Z,5.73
2023-02-27T11:58:29.687Z,5.92
2023-02-27T11:59:29.662Z,5.73
2023-02-27T12:00:29.663Z,5.53
2023-02-27T12:01:29.771Z,5.73
2023-02-27T12:02:29.689Z,5.63
2023-02-27T12:03:29.654Z,5.73
2023-02-27T12:04:29.661Z,5.53
2023-02-27T12:05:29.655Z,5.43
2023-02-27T12:06:29.660Z,5.43
2023-02-27T12:07:29.651Z,5.24
2023-02-27T12:08:29.667Z,5.33
2023-02-27T12:09:29.653Z,5.53
2023-02-27T12:10:29.660Z,5.33
2023-02-27T12:11:29.994Z,5.15
2023-02-27T12:12:29.668Z,5.05
2023-02-27T12:13:29.653Z,4.85
2023-02-27T12:14:29.749Z,4.85
2023-02-27T12:15:29.648Z,5.05
2023-02-27T12:16:32.423Z,4.66
2023-02-27T12:17:29.673Z,4.85
2023-02-27T12:18:29.654Z,5.15
2023-02-27T12:19:29.654Z,4.85
2023-02-27T12:20:29.658Z,4.95
2023-02-27T12:21:29.650Z,4.95
2023-02-27T12:22:29.653Z,4.36
2023-02-27T12:23:29.651Z,4.56
2023-02-27T12:24:29.655Z,4.46
2023-02-27T12:25:29.658Z,4.75
2023-02-27T12:26:30.144Z,4.75
2023-02-27T12:27:29.644Z,4.95
2023-02-27T12:28:29.650Z,4.95
2023-02-27T12:29:29.642Z,4.46
2023-02-27T12:30:29.685Z,4.66
2023-02-27T12:31:30.034Z,4.75
2023-02-27T12:32:29.866Z,4.56
2023-02-27T12:33:29.640Z,5.05
2023-02-27T12:34:29.645Z,5.05
2023-02-27T12:35:29.688Z,5.33
2023-02-27T12:36:29.657Z,4.85
2023-02-27T12:37:29.638Z,5.05
2023-02-27T12:38:29.648Z,4.85
2023-02-27T12:39:29.636Z,4.95
2023-02-27T12:40:29.644Z,4.47
2023-02-27T12:41:29.885Z,4.37
2023-02-27T12:42:29.647Z,4.56
2023-02-27T12:43:29.634Z,5.05
2023-02-27T12:44:29.642Z,4.37
2023-02-27T12:45:29.684Z,5.34
2023-02-27T12:46:29.676Z,4.85
2023-02-27T12:47:29.644Z,4.56
2023-02-27T12:48:29.639Z,4.75
2023-02-27T12:49:29.643Z,4.66
2023-02-27T12:50:29.644Z,4.66
2023-02-27T12:51:30.063Z,5.63
2023-02-27T12:52:29.641Z,4.95
2023-02-27T12:53:29.629Z,4.47
2023-02-27T12:54:29.637Z,4.75
2023-02-27T12:55:29.632Z,4.56
2023-02-27T12:56:29.637Z,5.34
2023-02-27T12:57:29.628Z,5.24
2023-02-27T12:58:29.645Z,4.95
2023-02-27T12:59:29.629Z,4.95
2023-02-27T13:00:29.636Z,4.95
2023-02-27T13:01:30.198Z,4.95
2023-02-27T13:02:29.660Z,4.37
2023-02-27T13:03:29.631Z,4.56
2023-02-27T13:04:29.638Z,4.95
2023-02-27T13:05:29.632Z,4.95
2023-02-27T13:06:29.638Z,5.05
2023-02-27T13:07:29.639Z,5.15
2023-02-27T13:08:29.639Z,5.05
2023-02-27T13:09:29.635Z,5.24
2023-02-27T13:10:29.642Z,5.05
2023-02-27T13:11:30.028Z,5.05
2023-02-27T13:12:29.640Z,4.75
2023-02-27T13:13:29.634Z,5.05
2023-02-27T13:14:29.642Z,5.05
2023-02-27T13:15:29.633Z,5.05
2023-02-27T13:16:29.730Z,4.85
2023-02-27T13:17:29.632Z,4.85
2023-02-27T13:18:29.667Z,4.85
2023-02-27T13:19:29.632Z,5.63